createdAt,value
2022-08-11T00:03:48.401Z,4.28
2022-08-11T00:08:54.215Z,4.72
2022-08-11T00:14:00.554Z,7.50
2022-08-11T00:19:03.127Z,9.30
2022-08-11T00:24:05.837Z,9.88
2022-08-11T00:29:10.223Z,11.10
2022-08-11T00:34:13.182Z,12.52
2022-08-11T00:39:16.744Z,14.50
2022-08-11T00:44:42.662Z,14.27
2022-08-11T00:50:09.259Z,14.52
2022-08-11T00:55:55.484Z,12.13
2022-08-11T01:01:10.727Z,12.00
2022-08-11T01:06:48.847Z,11.40
2022-08-11T01:12:39.403Z,11.73
2022-08-11T01:17:54.196Z,10.02
2022-08-11T01:23:13.318Z,10.05
2022-08-11T01:28:41.301Z,7.78
2022-08-11T01:34:25.706Z,7.00
2022-08-11T01:39:51.285Z,5.78
2022-08-11T01:45:46.592Z,5.32
2022-08-11T01:51:03.548Z,5.03
2022-08-11T01:56:31.096Z,4.90
2022-08-11T02:01:36.894Z,4.88
2022-08-11T02:07:08.741Z,4.85
2022-08-11T02:12:21.779Z,6.13
2022-08-11T02:17:58.817Z,14.82
2022-08-11T02:23:41.085Z,12.00
2022-08-11T02:28:59.439Z,9.83
2022-08-11T02:34:37.374Z,8.85
2022-08-11T02:40:15.377Z,6.07
2022-08-11T02:45:48.167Z,6.60
2022-08-11T02:51:10.781Z,6.50
2022-08-11T02:56:52.515Z,8.02
2022-08-11T03:02:18.586Z,8.30
2022-08-11T03:07:31.475Z,9.15
2022-08-11T03:13:08.668Z,8.70
2022-08-11T03:18:28.727Z,8.05
2022-08-11T03:23:40.206Z,8.70
2022-08-11T03:28:51.248Z,10.60
2022-08-11T03:39:31.050Z,10.60
2022-08-11T03:44:34.040Z,6.85
2022-08-11T03:50:14.708Z,5.60
2022-08-11T03:55:53.482Z,5.60
2022-08-11T04:01:10.933Z,5.25
2022-08-11T04:06:35.271Z,5.30
2022-08-11T04:11:51.855Z,6.20
2022-08-11T04:17:32.215Z,5.65
2022-08-11T04:22:59.274Z,5.70
2022-08-11T04:28:29.038Z,5.32
2022-08-11T04:33:43.778Z,5.70
2022-08-11T04:39:14.563Z,6.95
2022-08-11T04:44:47.358Z,18.63
2022-08-11T04:50:27.070Z,13.93
2022-08-11T04:56:16.452Z,11.35
2022-08-11T05:01:41.977Z,8.90
2022-08-11T05:07:04.820Z,7.70
2022-08-11T05:12:38.315Z,7.00
2022-08-11T05:18:24.791Z,5.22
2022-08-11T05:23:46.486Z,4.20
2022-08-11T05:29:21.233Z,4.55
2022-08-11T05:34:48.471Z,3.97
2022-08-11T05:46:02.364Z,3.95
2022-08-11T05:51:30.007Z,3.78
2022-08-11T05:56:44.408Z,3.92
2022-08-11T06:01:48.278Z,3.08
2022-08-11T06:06:57.681Z,3.28
2022-08-11T06:12:33.556Z,4.63
2022-08-11T06:17:46.433Z,3.58
2022-08-11T06:22:56.866Z,3.83
2022-08-11T06:28:00.239Z,3.20
2022-08-11T06:33:04.482Z,4.10
2022-08-11T06:38:11.057Z,3.28
2022-08-11T06:43:20.334Z,3.35
2022-08-11T06:48:24.834Z,3.53
2022-08-11T06:53:34.661Z,3.35
2022-08-11T06:58:58.331Z,3.08
2022-08-11T07:04:07.599Z,3.17
2022-08-11T07:09:47.329Z,3.60
2022-08-11T07:15:11.206Z,3.30
2022-08-11T07:20:32.112Z,3.17
2022-08-11T07:25:55.475Z,3.88
2022-08-11T07:31:07.242Z,2.97
2022-08-11T07:36:12.929Z,2.45
2022-08-11T07:41:17.372Z,2.50
2022-08-11T07:46:40.240Z,2.60
2022-08-11T07:52:03.109Z,1.60
2022-08-11T07:58:04.448Z,1.60
2022-08-11T08:03:19.981Z,1.50
2022-08-11T08:08:42.048Z,1.60
2022-08-11T08:14:02.906Z,1.50
2022-08-11T08:19:05.793Z,1.33
2022-08-11T08:24:08.185Z,1.60
2022-08-11T08:29:28.966Z,1.30
2022-08-11T08:34:33.545Z,1.90
2022-08-11T08:39:38.041Z,1.40
2022-08-11T08:44:46.400Z,1.20
2022-08-11T08:49:53.448Z,1.73
2022-08-11T08:54:58.191Z,1.60
2022-08-11T09:00:02.196Z,1.58
2022-08-11T09:05:15.850Z,1.50
2022-08-11T09:10:23.341Z,1.60
2022-08-11T09:15:30.426Z,4.55
2022-08-11T09:20:37.359Z,1.40
2022-08-11T09:26:01.240Z,1.40
2022-08-11T09:31:09.729Z,1.42
2022-08-11T09:36:33.792Z,1.25
2022-08-11T09:42:00.546Z,1.65
2022-08-11T09:47:08.549Z,1.30
2022-08-11T09:52:13.937Z,1.45
2022-08-11T09:57:38.224Z,1.40
2022-08-11T10:02:47.768Z,1.55
2022-08-11T10:07:52.616Z,1.60
2022-08-11T10:12:59.980Z,1.90
2022-08-11T10:18:28.441Z,1.60
2022-08-11T10:24:01.074Z,1.60
2022-08-11T10:29:36.696Z,1.80
2022-08-11T10:35:01.457Z,1.63
2022-08-11T10:40:05.866Z,1.40
2022-08-11T10:45:27.297Z,1.60
2022-08-11T10:50:49.421Z,1.48
2022-08-11T10:56:12.480Z,1.30
2022-08-11T11:01:30.667Z,1.60
2022-08-11T11:07:00.300Z,1.38
2022-08-11T11:12:30.427Z,1.30
2022-08-11T11:17:57.684Z,1.30
2022-08-11T11:23:35.424Z,1.40
2022-08-11T11:28:53.743Z,1.48
2022-08-11T11:34:14.917Z,1.40
2022-08-11T11:39:20.234Z,1.35
2022-08-11T11:44:27.863Z,1.30
2022-08-11T11:49:39.592Z,1.30
2022-08-11T11:54:42.601Z,1.48
2022-08-11T12:00:04.784Z,1.52
2022-08-11T12:05:13.096Z,1.30
2022-08-11T12:10:20.836Z,1.40
2022-08-11T12:16:03.587Z,1.48
2022-08-11T12:20:48.989Z,2.05
2022-08-11T12:26:26.326Z,1.70
2022-08-11T12:31:29.935Z,1.65
2022-08-11T12:36:36.010Z,1.52
2022-08-11T12:41:57.846Z,1.50
2022-08-11T12:47:02.245Z,1.50
2022-08-11T12:52:13.448Z,1.38
2022-08-11T12:57:48.953Z,1.50
2022-08-11T13:03:09.900Z,1.55
2022-08-11T13:08:14.476Z,1.70
2022-08-11T13:13:54.377Z,1.92
2022-08-11T13:18:44.123Z,1.58
2022-08-11T13:24:01.265Z,1.80
2022-08-11T13:29:05.420Z,1.50
2022-08-11T13:34:08.529Z,1.52
2022-08-11T13:39:11.331Z,1.75
2022-08-11T13:44:18.170Z,1.50
2022-08-11T13:49:22.225Z,2.00
2022-08-11T13:54:28.020Z,1.80
2022-08-11T13:59:31.568Z,1.60
2022-08-11T14:04:46.692Z,1.70
2022-08-11T14:09:56.580Z,1.63
2022-08-11T14:15:08.824Z,1.73
2022-08-11T14:20:35.355Z,1.60
2022-08-11T14:26:00.050Z,1.70
2022-08-11T14:31:01.818Z,1.83
2022-08-11T14:36:08.144Z,1.70
2022-08-11T14:41:30.433Z,2.50
2022-08-11T14:46:51.791Z,1.92
2022-08-11T14:51:56.127Z,1.60
2022-08-11T14:57:04.176Z,1.45
2022-08-11T15:02:25.446Z,1.80
2022-08-11T15:07:33.405Z,1.77
2022-08-11T15:12:37.087Z,2.05
2022-08-11T15:17:43.161Z,1.35
2022-08-11T15:23:06.001Z,1.40
2022-08-11T15:28:27.193Z,2.28
2022-08-11T15:33:49.710Z,1.90
2022-08-11T15:39:27.984Z,1.50
2022-08-11T15:45:02.729Z,2.10
2022-08-11T15:50:11.027Z,1.73
2022-08-11T15:55:21.835Z,1.98
2022-08-11T16:00:45.939Z,1.60
2022-08-11T16:05:53.194Z,2.00
2022-08-11T16:10:57.599Z,2.10
2022-08-11T16:16:27.094Z,2.30
2022-08-11T16:21:36.150Z,1.80
2022-08-11T16:27:10.334Z,1.60
2022-08-11T16:32:21.364Z,2.10
2022-08-11T16:37:46.910Z,1.70
2022-08-11T16:43:11.296Z,1.77
2022-08-11T16:48:34.967Z,2.45
2022-08-11T16:54:09.333Z,1.80
2022-08-11T16:59:27.116Z,1.45
2022-08-11T17:04:56.093Z,1.55
2022-08-11T17:10:52.424Z,1.73
2022-08-11T17:16:07.091Z,1.50
2022-08-11T17:21:34.762Z,1.60
2022-08-11T17:26:58.901Z,1.67
2022-08-11T17:32:24.861Z,1.70
2022-08-11T17:37:33.235Z,2.00
2022-08-11T17:42:55.196Z,1.85
2022-08-11T17:48:24.082Z,3.83
2022-08-11T17:54:15.971Z,1.80
2022-08-11T17:59:33.452Z,1.60
2022-08-11T18:04:38.501Z,1.77
2022-08-11T18:10:02.849Z,1.90
2022-08-11T18:15:27.089Z,1.80
2022-08-11T18:21:02.390Z,3.08
2022-08-11T18:26:25.566Z,2.40
2022-08-11T18:31:47.260Z,2.30
2022-08-11T18:37:29.266Z,2.13
2022-08-11T18:42:51.649Z,4.22
2022-08-11T18:48:20.207Z,2.53
2022-08-11T18:53:48.595Z,2.95
2022-08-11T18:59:19.078Z,2.50
2022-08-11T19:04:43.136Z,2.08
2022-08-11T19:10:05.157Z,2.00
2022-08-11T19:15:29.333Z,2.85
2022-08-11T19:20:53.186Z,2.75
2022-08-11T19:26:16.724Z,2.33
2022-08-11T19:31:59.729Z,2.83
2022-08-11T19:37:44.314Z,3.25
2022-08-11T19:43:24.518Z,2.70
2022-08-11T19:48:51.935Z,2.30
2022-08-11T19:54:23.163Z,2.60
2022-08-11T20:05:40.114Z,3.15
2022-08-11T20:11:29.929Z,3.00
2022-08-11T20:17:13.455Z,4.18
2022-08-11T20:22:36.608Z,3.37
2022-08-11T20:27:58.547Z,5.15
2022-08-11T20:33:20.175Z,9.45
2022-08-11T20:38:43.493Z,6.20
2022-08-11T20:44:09.076Z,8.60
2022-08-11T20:49:42.310Z,8.40
2022-08-11T20:55:18.985Z,6.60
2022-08-11T21:00:47.254Z,8.35
2022-08-11T21:06:11.214Z,10.10
2022-08-11T21:11:33.545Z,7.88
2022-08-11T21:16:55.422Z,4.10
2022-08-11T21:22:19.999Z,3.45
2022-08-11T21:27:42.425Z,3.25
2022-08-11T21:33:03.999Z,2.90
2022-08-11T21:38:25.098Z,3.20
2022-08-11T21:43:47.687Z,3.90
2022-08-11T21:49:09.328Z,3.65
2022-08-11T21:54:34.867Z,2.70
2022-08-11T22:00:09.505Z,3.60
2022-08-11T22:05:35.092Z,3.20
2022-08-11T22:10:57.058Z,3.45
2022-08-11T22:16:18.846Z,3.17
2022-08-11T22:22:03.343Z,3.38
2022-08-11T22:27:21.946Z,3.00
2022-08-11T22:32:42.873Z,3.20
2022-08-11T22:38:05.383Z,3.55
2022-08-11T22:43:26.423Z,3.10
2022-08-11T22:48:49.319Z,2.90
2022-08-11T22:54:11.913Z,3.30
2022-08-11T22:59:36.088Z,3.33
2022-08-11T23:04:57.700Z,3.30
2022-08-11T23:10:18.734Z,3.50
2022-08-11T23:15:42.589Z,3.13
2022-08-11T23:21:10.184Z,3.20
2022-08-11T23:26:31.015Z,3.40
2022-08-11T23:31:54.160Z,3.58
2022-08-11T23:37:14.960Z,3.95
2022-08-11T23:42:36.464Z,4.45
2022-08-11T23:47:58.315Z,4.35
2022-08-11T23:53:19.304Z,4.80
2022-08-11T23:58:41.041Z,5.53
